Time;durP1;ratioP1;P1;durP2;ratioP2;P2;SDS_P1;SDS_P2;PMS_P1;PMS_P2;Temp;Humidity;BMP_temperature;BMP_pressure;BME280_temperature;BME280_humidity;BME280_pressure;Samples;Min_cycle;Max_cycle;Signal;HPM_P1;HPM_P2
2023/10/04 00:00:15;;;;;;;0.45;0.40;;;21.40;68.60;;;;;;5093437;28;20104;-83
2023/10/04 00:02:49;;;;;;;0.40;0.40;;;21.40;68.50;;;;;;5097205;28;20090;-82
2023/10/04 00:05:16;;;;;;;0.50;0.40;;;21.30;68.40;;;;;;5092499;28;20395;-84
2023/10/04 00:07:46;;;;;;;0.40;0.40;;;21.40;68.50;;;;;;5098216;28;20040;-83
2023/10/04 00:10:12;;;;;;;0.50;0.30;;;21.40;68.40;;;;;;5095174;28;20043;-83
2023/10/04 00:12:38;;;;;;;0.40;0.40;;;21.40;68.40;;;;;;5099627;28;20100;-83
2023/10/04 00:15:09;;;;;;;0.68;0.45;;;21.40;68.60;;;;;;5095226;28;20051;-83
2023/10/04 00:17:35;;;;;;;0.50;0.50;;;21.30;68.30;;;;;;5089914;28;20120;-83
2023/10/04 00:20:03;;;;;;;0.50;0.50;;;21.40;68.40;;;;;;5090684;28;20089;-83
2023/10/04 00:22:29;;;;;;;0.60;0.50;;;21.30;68.60;;;;;;5099591;28;20043;-84
2023/10/04 00:24:54;;;;;;;0.70;0.50;;;21.30;68.40;;;;;;5094622;28;20043;-83
2023/10/04 00:27:20;;;;;;;0.40;0.40;;;21.40;68.50;;;;;;5087497;28;20111;-83
2023/10/04 00:29:45;;;;;;;0.88;0.50;;;21.40;68.40;;;;;;5092819;28;20394;-83
2023/10/04 00:32:13;;;;;;;0.50;0.50;;;21.40;68.40;;;;;;5096051;28;20082;-83
2023/10/04 00:34:40;;;;;;;0.40;0.40;;;21.30;68.40;;;;;;5096005;28;20044;-83
2023/10/04 00:37:07;;;;;;;0.50;0.45;;;21.30;68.40;;;;;;5087770;28;20420;-83
2023/10/04 00:39:34;;;;;;;0.50;0.50;;;21.40;68.40;;;;;;5090880;28;20040;-83
2023/10/04 00:42:00;;;;;;;0.40;0.30;;;21.30;68.40;;;;;;5088961;28;24175;-83
2023/10/04 00:44:26;;;;;;;0.35;0.35;;;21.30;68.50;;;;;;5094890;28;20039;-83
2023/10/04 00:46:52;;;;;;;0.40;0.40;;;21.40;68.40;;;;;;5101368;28;20055;-83
2023/10/04 00:49:18;;;;;;;0.45;0.45;;;21.30;68.30;;;;;;5058799;28;20040;-83
2023/10/04 00:51:43;;;;;;;0.35;0.35;;;21.40;68.40;;;;;;5091033;28;20046;-83
2023/10/04 00:54:12;;;;;;;0.63;0.40;;;21.30;68.40;;;;;;5092556;28;20074;-83
2023/10/04 00:56:38;;;;;;;0.50;0.50;;;21.30;68.40;;;;;;5111247;27;20041;-83
2023/10/04 00:59:04;;;;;;;0.40;0.38;;;21.30;68.50;;;;;;5082506;28;20042;-83
2023/10/04 01:01:33;;;;;;;0.32;0.32;;;21.30;68.40;;;;;;5093155;28;20032;-83
2023/10/04 01:04:02;;;;;;;0.52;0.40;;;21.30;68.40;;;;;;5086761;28;20119;-82
2023/10/04 01:06:28;;;;;;;0.50;0.50;;;21.30;68.30;;;;;;5078795;28;20051;-83
2023/10/04 01:08:55;;;;;;;0.60;0.50;;;21.30;68.50;;;;;;5058464;28;20032;-83
2023/10/04 01:11:22;;;;;;;0.82;0.60;;;21.30;68.50;;;;;;5094614;28;20517;-83
2023/10/04 01:13:47;;;;;;;0.28;0.25;;;21.30;68.40;;;;;;5097741;28;20052;-83
2023/10/04 01:16:15;;;;;;;0.60;0.30;;;21.30;68.30;;;;;;5091378;28;20050;-83
2023/10/04 01:18:41;;;;;;;0.50;0.50;;;21.30;68.60;;;;;;5073242;28;20048;-84
2023/10/04 01:21:06;;;;;;;0.50;0.50;;;21.30;68.40;;;;;;5089539;28;20118;-83
2023/10/04 01:23:33;;;;;;;0.43;0.40;;;21.30;68.40;;;;;;5090245;28;20044;-83
2023/10/04 01:26:00;;;;;;;0.55;0.40;;;21.30;68.30;;;;;;5096061;28;20040;-83
2023/10/04 01:28:30;;;;;;;0.43;0.40;;;21.30;68.40;;;;;;5093134;28;20024;-84
2023/10/04 01:30:58;;;;;;;0.40;0.40;;;21.30;69.30;;;;;;5093427;28;20097;-84
2023/10/04 01:33:23;;;;;;;1.35;0.70;;;21.30;68.40;;;;;;5093531;28;20039;-83
2023/10/04 01:35:51;;;;;;;0.82;0.60;;;21.30;68.60;;;;;;5085808;28;20055;-82
2023/10/04 01:38:17;;;;;;;0.38;0.32;;;21.30;68.40;;;;;;5091764;28;20082;-83
2023/10/04 01:40:47;;;;;;;0.40;0.40;;;21.30;68.40;;;;;;5107435;27;20060;-83
2023/10/04 01:43:16;;;;;;;2.17;0.40;;;21.30;68.40;;;;;;5092846;28;20040;-82
2023/10/04 01:45:50;;;;;;;0.50;0.50;;;21.30;68.40;;;;;;5089992;28;20047;-83
2023/10/04 01:48:15;;;;;;;0.60;0.50;;;21.30;68.30;;;;;;5089030;28;20042;-83
2023/10/04 01:50:42;;;;;;;1.48;0.82;;;21.30;68.40;;;;;;5091093;28;20043;-83
2023/10/04 01:53:09;;;;;;;0.50;0.50;;;21.30;69.20;;;;;;5092659;28;20127;-83
2023/10/04 01:55:35;;;;;;;0.43;0.43;;;21.30;68.40;;;;;;5092401;28;20039;-83
2023/10/04 01:58:01;;;;;;;0.38;0.30;;;21.30;68.50;;;;;;5081496;28;20523;-83
2023/10/04 02:00:28;;;;;;;0.47;0.45;;;21.30;68.30;;;;;;5090880;28;20040;-83
2023/10/04 02:02:54;;;;;;;0.68;0.50;;;21.20;68.30;;;;;;5082736;28;20048;-82
2023/10/04 02:05:26;;;;;;;0.43;0.40;;;21.30;68.20;;;;;;5091745;28;20048;-83
2023/10/04 02:07:53;;;;;;;0.30;0.30;;;21.30;68.20;;;;;;5094587;28;20055;-83
2023/10/04 02:10:19;;;;;;;0.25;0.25;;;21.30;68.40;;;;;;5088533;28;20047;-83
2023/10/04 02:12:44;;;;;;;0.50;0.50;;;21.30;68.30;;;;;;5093782;28;20394;-83
2023/10/04 02:15:19;;;;;;;2.35;0.40;;;21.30;68.20;;;;;;5069999;28;20143;-83
2023/10/04 02:17:45;;;;;;;0.55;0.35;;;21.20;68.30;;;;;;5091106;28;20073;-83
2023/10/04 02:20:18;;;;;;;0.40;0.40;;;21.20;68.10;;;;;;5096657;28;20536;-84
2023/10/04 02:22:44;;;;;;;0.40;0.40;;;21.20;68.20;;;;;;5094819;28;20059;-84
2023/10/04 02:25:13;;;;;;;0.50;0.45;;;21.20;68.20;;;;;;5086555;28;20108;-84
2023/10/04 02:27:40;;;;;;;0.55;0.35;;;21.20;68.30;;;;;;5074860;28;20455;-83
2023/10/04 02:30:13;;;;;;;0.60;0.43;;;21.30;68.20;;;;;;5086154;28;20253;-83
2023/10/04 02:32:41;;;;;;;0.52;0.50;;;21.20;68.10;;;;;;5088534;28;20131;-84
2023/10/04 02:35:07;;;;;;;0.47;0.40;;;21.20;68.10;;;;;;5090815;28;20126;-83
2023/10/04 02:37:34;;;;;;;0.50;0.45;;;21.20;68.20;;;;;;5098850;28;20717;-83
2023/10/04 02:40:01;;;;;;;0.30;0.30;;;21.20;68.10;;;;;;5095533;28;20047;-83
2023/10/04 02:42:28;;;;;;;0.60;0.60;;;21.20;68.10;;;;;;5093997;28;20065;-84
2023/10/04 02:44:54;;;;;;;0.30;0.30;;;21.20;68.10;;;;;;5090177;28;20536;-83
2023/10/04 02:47:19;;;;;;;0.47;0.45;;;21.20;68.00;;;;;;5094613;28;20033;-83
2023/10/04 02:49:45;;;;;;;0.40;0.40;;;21.20;68.20;;;;;;5094986;28;20044;-84
2023/10/04 02:52:11;;;;;;;0.98;0.60;;;21.20;68.10;;;;;;5086608;28;20048;-83
2023/10/04 02:54:38;;;;;;;0.30;0.30;;;21.20;68.20;;;;;;5090519;28;20497;-84
2023/10/04 02:57:08;;;;;;;0.40;0.40;;;21.20;68.10;;;;;;5089550;28;20039;-83
2023/10/04 02:59:34;;;;;;;0.60;0.43;;;21.20;68.20;;;;;;5092180;28;20690;-84
2023/10/04 03:02:00;;;;;;;0.60;0.43;;;21.20;68.00;;;;;;5091186;28;20489;-83
2023/10/04 03:04:26;;;;;;;0.95;0.40;;;21.20;68.00;;;;;;5089945;28;20039;-84
2023/10/04 03:06:52;;;;;;;0.60;0.40;;;21.20;68.10;;;;;;5092208;28;20044;-83
2023/10/04 03:09:18;;;;;;;0.52;0.45;;;21.20;68.10;;;;;;5091672;28;20527;-83
2023/10/04 03:11:43;;;;;;;0.75;0.60;;;21.20;68.00;;;;;;5094003;28;20499;-83
2023/10/04 03:14:11;;;;;;;0.47;0.47;;;21.20;68.10;;;;;;5091777;28;20055;-84
2023/10/04 03:16:40;;;;;;;0.40;0.38;;;21.20;68.10;;;;;;5095495;28;20044;-83
2023/10/04 03:19:06;;;;;;;0.60;0.32;;;21.20;68.00;;;;;;5087873;28;20075;-83
2023/10/04 03:21:33;;;;;;;0.80;0.57;;;21.20;68.80;;;;;;5093518;28;20566;-83
2023/10/04 03:23:58;;;;;;;0.50;0.50;;;21.20;68.10;;;;;;5090167;28;20047;-82
2023/10/04 03:26:24;;;;;;;0.40;0.40;;;21.20;68.00;;;;;;5089789;28;20044;-82
2023/10/04 03:28:50;;;;;;;0.50;0.50;;;21.20;68.00;;;;;;5094580;28;20476;-79
2023/10/04 03:31:16;;;;;;;0.40;0.40;;;21.20;68.00;;;;;;5094690;28;20047;-83
2023/10/04 03:33:44;;;;;;;0.32;0.32;;;21.20;68.00;;;;;;5092049;28;20044;-83
2023/10/04 03:36:14;;;;;;;0.50;0.50;;;21.20;68.00;;;;;;5087499;28;20420;-83
2023/10/04 03:38:43;;;;;;;1.17;0.45;;;21.20;68.00;;;;;;5093359;28;20051;-82
2023/10/04 03:41:09;;;;;;;0.32;0.32;;;21.20;68.00;;;;;;5114206;27;20047;-82
2023/10/04 03:43:35;;;;;;;1.00;0.50;;;21.10;68.00;;;;;;5098067;28;20051;-82
2023/10/04 03:46:16;;;;;;;0.90;0.55;;;21.10;67.90;;;;;;5095116;28;20050;-82
2023/10/04 03:48:43;;;;;;;0.50;0.40;;;21.20;68.00;;;;;;5097043;28;20039;-82
2023/10/04 03:51:09;;;;;;;0.43;0.40;;;21.20;68.00;;;;;;5093362;28;20035;-82
2023/10/04 03:53:34;;;;;;;0.43;0.40;;;21.10;68.00;;;;;;5092726;28;20038;-83
2023/10/04 03:56:01;;;;;;;0.50;0.40;;;21.10;67.90;;;;;;5093387;28;20591;-83
2023/10/04 03:58:27;;;;;;;0.43;0.43;;;21.10;68.00;;;;;;5096923;28;20044;-83
2023/10/04 04:00:52;;;;;;;0.50;0.40;;;21.10;67.90;;;;;;5090902;28;20693;-82
2023/10/04 04:03:18;;;;;;;0.30;0.30;;;21.20;68.00;;;;;;5093205;28;20032;-83
2023/10/04 04:05:44;;;;;;;0.43;0.32;;;21.10;67.90;;;;;;5091147;28;20036;-83
2023/10/04 04:08:12;;;;;;;0.40;0.30;;;21.10;68.00;;;;;;5091517;28;20085;-83
2023/10/04 04:10:37;;;;;;;0.35;0.35;;;21.10;67.80;;;;;;5098999;28;20070;-84
2023/10/04 04:13:06;;;;;;;0.30;0.30;;;21.10;67.90;;;;;;5091104;28;20397;-83
2023/10/04 04:15:35;;;;;;;0.50;0.50;;;21.10;67.90;;;;;;5094264;28;20041;-83
2023/10/04 04:18:13;;;;;;;0.40;0.30;;;21.10;67.90;;;;;;5091397;28;20107;-82
2023/10/04 04:20:41;;;;;;;0.25;0.25;;;21.10;67.90;;;;;;5107830;27;20064;-79
2023/10/04 04:23:08;;;;;;;0.30;0.30;;;21.10;67.70;;;;;;5091827;28;20036;-79
2023/10/04 04:25:34;;;;;;;0.40;0.30;;;21.10;68.00;;;;;;5096844;28;20024;-79
2023/10/04 04:28:01;;;;;;;1.20;0.30;;;21.10;68.10;;;;;;5094349;28;20028;-79
2023/10/04 04:30:34;;;;;;;0.57;0.35;;;21.10;67.90;;;;;;5079583;28;20040;-79
2023/10/04 04:33:03;;;;;;;0.40;0.40;;;21.10;67.90;;;;;;5090790;28;20122;-79
2023/10/04 04:38:11;;;;;;;0.32;0.32;;;21.10;68.70;;;;;;5087902;28;20386;-79
2023/10/04 04:40:38;;;;;;;0.35;0.35;;;21.10;68.00;;;;;;5095703;28;20047;-81
2023/10/04 04:43:25;;;;;;;0.40;0.40;;;21.10;68.00;;;;;;5086447;28;20044;-80
2023/10/04 04:45:53;;;;;;;0.98;0.30;;;21.10;68.10;;;;;;5090868;28;20039;-85
2023/10/04 04:48:23;;;;;;;1.05;0.30;;;21.10;68.50;;;;;;5100210;27;20078;-84
2023/10/04 04:50:49;;;;;;;0.35;0.30;;;21.10;68.00;;;;;;5094920;28;20043;-83
2023/10/04 04:53:17;;;;;;;1.75;0.50;;;21.10;68.00;;;;;;5093205;28;20052;-83
2023/10/04 04:55:42;;;;;;;0.47;0.30;;;21.10;67.90;;;;;;5094090;28;20039;-84
2023/10/04 04:58:08;;;;;;;0.40;0.38;;;21.00;67.90;;;;;;5091584;28;20126;-84
2023/10/04 05:00:34;;;;;;;0.40;0.40;;;21.00;67.80;;;;;;5092520;28;20044;-85
2023/10/04 05:03:00;;;;;;;0.43;0.35;;;21.10;67.80;;;;;;5086235;28;20043;-85
2023/10/04 05:05:29;;;;;;;0.50;0.40;;;21.00;67.80;;;;;;5087522;28;20534;-86
2023/10/04 05:07:55;;;;;;;0.32;0.30;;;21.00;67.80;;;;;;5094135;28;20200;-83
2023/10/04 05:10:22;;;;;;;1.05;0.57;;;21.00;67.70;;;;;;5093582;28;20698;-84
2023/10/04 05:12:48;;;;;;;0.60;0.50;;;21.00;68.20;;;;;;5091982;28;20047;-82
2023/10/04 05:15:31;;;;;;;0.50;0.50;;;21.00;68.10;;;;;;5084646;28;20035;-81
2023/10/04 05:18:00;;;;;;;0.80;0.65;;;21.00;68.00;;;;;;5092343;28;20040;-80
2023/10/04 05:20:26;;;;;;;0.40;0.38;;;21.00;67.70;;;;;;5091635;28;20067;-80
2023/10/04 05:22:52;;;;;;;1.65;0.30;;;21.00;67.70;;;;;;5094659;28;20036;-81
2023/10/04 05:25:20;;;;;;;0.50;0.50;;;21.00;68.30;;;;;;5091437;28;20047;-82
2023/10/04 05:27:48;;;;;;;0.63;0.55;;;21.00;67.60;;;;;;5091079;28;20128;-81
2023/10/04 05:30:16;;;;;;;0.25;0.25;;;21.00;67.60;;;;;;5091228;28;20020;-81
2023/10/04 05:32:42;;;;;;;1.25;0.80;;;21.10;67.70;;;;;;5092696;28;20040;-81
2023/10/04 05:35:18;;;;;;;0.40;0.40;;;21.00;67.70;;;;;;5088247;28;20101;-81
2023/10/04 05:37:44;;;;;;;0.40;0.30;;;21.00;67.60;;;;;;5088245;28;20068;-81
2023/10/04 05:40:17;;;;;;;0.20;0.13;;;21.00;67.50;;;;;;5097393;28;20032;-81
2023/10/04 05:42:45;;;;;;;1.67;0.55;;;21.00;67.80;;;;;;5090567;28;20040;-82
2023/10/04 05:45:12;;;;;;;0.60;0.40;;;21.00;67.40;;;;;;5092810;28;20039;-81
2023/10/04 05:47:41;;;;;;;0.43;0.40;;;21.00;67.10;;;;;;5098735;28;20071;-81
2023/10/04 05:50:13;;;;;;;1.53;0.40;;;21.00;67.80;;;;;;4738771;28;10000601;-77
2023/10/04 05:52:39;;;;;;;0.30;0.30;;;21.00;67.30;;;;;;5093568;28;20055;-78
2023/10/04 05:55:08;;;;;;;0.88;0.60;;;21.00;67.40;;;;;;5089539;28;20036;-79
2023/10/04 05:57:36;;;;;;;0.50;0.40;;;20.90;67.40;;;;;;5069073;28;20047;-80
2023/10/04 06:00:23;;;;;;;0.30;0.30;;;20.90;67.60;;;;;;5082502;28;20043;-79
2023/10/04 06:02:50;;;;;;;1.40;0.50;;;20.90;67.60;;;;;;5087506;28;20044;-80
2023/10/04 06:05:19;;;;;;;0.50;0.50;;;20.90;67.30;;;;;;5074021;28;20125;-80
2023/10/04 06:07:46;;;;;;;0.65;0.50;;;20.80;67.00;;;;;;5076108;28;20118;-81
2023/10/04 06:10:13;;;;;;;1.40;0.82;;;20.80;66.80;;;;;;5081255;28;20134;-82
2023/10/04 06:12:39;;;;;;;2.00;1.17;;;20.80;61.40;;;;;;5069426;28;20071;-80
2023/10/04 06:15:10;;;;;;;2.58;0.80;;;20.40;57.00;;;;;;5076347;28;20684;-83
2023/10/04 06:17:42;;;;;;;1.35;0.98;;;19.90;56.80;;;;;;5078088;27;20097;-83
2023/10/04 06:20:23;;;;;;;1.10;0.95;;;19.60;56.90;;;;;;5106452;27;20394;-82
2023/10/04 06:23:00;;;;;;;1.55;1.30;;;19.30;57.00;;;;;;5076760;28;20043;-83
2023/10/04 06:25:31;;;;;;;2.08;1.20;;;19.10;57.00;;;;;;5079001;28;20139;-83
2023/10/04 06:27:58;;;;;;;2.03;1.27;;;19.00;57.40;;;;;;5078711;28;20040;-81
2023/10/04 06:30:26;;;;;;;1.50;0.82;;;19.00;57.30;;;;;;5076148;28;20506;-80
2023/10/04 06:32:56;;;;;;;1.45;1.02;;;18.90;57.40;;;;;;5063355;28;20048;-80
2023/10/04 06:35:25;;;;;;;1.65;0.80;;;18.70;57.70;;;;;;5088217;28;20125;-81
2023/10/04 06:37:52;;;;;;;1.20;1.10;;;18.80;57.90;;;;;;5101362;27;20128;-81
2023/10/04 06:40:19;;;;;;;2.70;1.30;;;18.70;57.70;;;;;;5096016;28;20283;-81
2023/10/04 06:42:48;;;;;;;2.35;1.27;;;18.00;58.30;;;;;;5073978;28;20039;-79
2023/10/04 06:45:18;;;;;;;3.28;1.23;;;17.50;60.00;;;;;;5080500;28;20932;-82
2023/10/04 06:47:47;;;;;;;2.00;1.17;;;17.20;61.60;;;;;;5084775;28;20074;-82
2023/10/04 06:50:18;;;;;;;2.28;1.10;;;17.10;62.30;;;;;;5072602;28;20658;-81
2023/10/04 06:52:45;;;;;;;1.67;1.00;;;17.20;62.50;;;;;;5088649;28;20480;-81
2023/10/04 06:55:11;;;;;;;4.07;1.00;;;17.80;62.30;;;;;;5089075;28;20076;-81
2023/10/04 06:57:36;;;;;;;1.48;0.85;;;18.20;60.30;;;;;;5082719;28;20380;-82
2023/10/04 07:00:12;;;;;;;1.85;0.95;;;18.70;59.20;;;;;;5086931;28;20036;-79
2023/10/04 07:02:40;;;;;;;2.22;0.95;;;19.10;58.60;;;;;;5079715;28;20052;-81
2023/10/04 07:05:06;;;;;;;3.17;0.90;;;19.00;58.30;;;;;;5089023;28;20040;-79
2023/10/04 07:07:31;;;;;;;2.22;1.35;;;19.00;58.40;;;;;;5096560;28;20126;-80
2023/10/04 07:09:57;;;;;;;1.35;1.00;;;19.10;58.60;;;;;;5084068;28;20639;-81
2023/10/04 07:12:23;;;;;;;2.28;1.20;;;19.30;58.40;;;;;;5084383;28;20049;-82
2023/10/04 07:14:49;;;;;;;1.83;1.08;;;19.40;58.10;;;;;;5086058;28;20040;-81
2023/10/04 07:17:19;;;;;;;4.68;1.33;;;19.40;57.90;;;;;;5086255;28;21938;-81
2023/10/04 07:19:44;;;;;;;1.77;0.90;;;19.50;58.20;;;;;;5084417;28;21936;-79
2023/10/04 07:22:10;;;;;;;1.92;1.15;;;19.30;57.80;;;;;;5097804;28;20044;-78
2023/10/04 07:24:37;;;;;;;3.13;1.20;;;18.40;59.00;;;;;;5098328;28;20076;-82
2023/10/04 07:27:03;;;;;;;5.07;1.85;;;17.70;60.60;;;;;;5086475;28;20375;-78
2023/10/04 07:29:29;;;;;;;2.40;1.45;;;17.30;62.50;;;;;;5093836;28;20076;-77
2023/10/04 07:31:56;;;;;;;1.45;1.33;;;17.00;63.30;;;;;;5094695;28;20071;-77
2023/10/04 07:34:24;;;;;;;2.28;1.42;;;16.80;63.90;;;;;;5098426;28;20075;-78
2023/10/04 07:36:51;;;;;;;3.63;1.50;;;16.80;64.30;;;;;;5093450;28;20504;-77
2023/10/04 07:39:17;;;;;;;3.83;1.73;;;16.80;64.40;;;;;;5091971;28;20056;-77
2023/10/04 07:41:42;;;;;;;4.88;1.50;;;16.70;65.10;;;;;;5097562;28;20036;-77
2023/10/04 07:44:10;;;;;;;6.78;1.83;;;16.50;65.70;;;;;;5094635;28;20605;-77
2023/10/04 07:46:35;;;;;;;2.10;1.27;;;16.60;65.60;;;;;;5081067;28;20527;-77
2023/10/04 07:49:01;;;;;;;1.55;1.08;;;16.70;65.40;;;;;;5079888;28;20052;-78
2023/10/04 07:51:28;;;;;;;4.05;1.70;;;16.50;65.60;;;;;;5094066;28;20120;-77
2023/10/04 07:53:53;;;;;;;2.28;1.30;;;16.40;66.20;;;;;;5091356;28;20409;-77
2023/10/04 07:56:19;;;;;;;1.70;1.50;;;16.30;67.20;;;;;;5092812;28;20036;-77
2023/10/04 07:58:46;;;;;;;1.80;1.40;;;16.20;67.10;;;;;;5099007;28;20081;-77
2023/10/04 08:01:14;;;;;;;4.47;1.70;;;16.20;67.40;;;;;;5097830;28;20167;-77
2023/10/04 08:03:39;;;;;;;5.38;1.85;;;16.10;67.40;;;;;;5099349;28;20040;-78
2023/10/04 08:06:11;;;;;;;4.63;1.83;;;16.20;67.80;;;;;;5094389;28;20381;-79
2023/10/04 08:08:41;;;;;;;5.15;2.08;;;16.40;67.60;;;;;;5077080;28;20132;-78
2023/10/04 08:11:10;;;;;;;3.83;1.60;;;16.40;67.80;;;;;;5095637;28;20044;-77
2023/10/04 08:13:36;;;;;;;4.13;1.98;;;16.60;67.80;;;;;;5099373;28;20667;-76
2023/10/04 08:16:04;;;;;;;4.72;1.60;;;16.60;68.30;;;;;;5098180;28;20047;-78
2023/10/04 08:18:30;;;;;;;4.50;2.25;;;16.60;68.60;;;;;;5095810;28;20040;-77
2023/10/04 08:20:56;;;;;;;3.55;1.98;;;16.80;69.30;;;;;;5093950;28;20580;-78
2023/10/04 08:23:22;;;;;;;4.10;2.15;;;16.90;68.00;;;;;;5095536;28;20101;-79
2023/10/04 08:25:51;;;;;;;4.78;2.25;;;17.00;69.40;;;;;;5099204;28;20052;-78
2023/10/04 08:28:18;;;;;;;5.10;2.45;;;17.00;68.60;;;;;;5093985;28;20051;-77
2023/10/04 08:30:43;;;;;;;2.55;1.77;;;17.00;68.90;;;;;;5090025;28;20048;-76
2023/10/04 08:33:09;;;;;;;3.35;1.92;;;17.10;68.90;;;;;;5089680;28;20058;-76
2023/10/04 08:35:36;;;;;;;2.67;1.58;;;17.10;68.60;;;;;;5094920;28;20128;-77
2023/10/04 08:38:06;;;;;;;5.63;2.17;;;17.10;69.10;;;;;;5090272;28;20549;-77
2023/10/04 08:40:34;;;;;;;6.07;2.55;;;17.00;69.80;;;;;;5095883;28;20044;-77
2023/10/04 08:43:00;;;;;;;3.88;1.90;;;17.10;69.90;;;;;;5093175;28;20412;-76
2023/10/04 08:45:29;;;;;;;2.80;1.95;;;17.20;69.90;;;;;;5096663;28;20576;-77
2023/10/04 08:47:56;;;;;;;4.68;2.30;;;17.10;69.90;;;;;;5096631;28;20517;-76
2023/10/04 08:50:36;;;;;;;3.72;1.45;;;17.10;70.00;;;;;;5097787;28;20044;-76
2023/10/04 08:53:21;;;;;;;4.95;2.22;;;17.20;70.10;;;;;;5103155;28;20527;-79
2023/10/04 08:55:51;;;;;;;3.63;1.88;;;17.30;69.80;;;;;;5100792;28;20169;-78
2023/10/04 08:58:17;;;;;;;2.25;1.77;;;17.30;69.50;;;;;;5097694;28;20509;-77
2023/10/04 09:00:43;;;;;;;2.92;1.67;;;17.40;69.60;;;;;;5078280;28;20054;-79
2023/10/04 09:03:08;;;;;;;2.22;1.50;;;17.40;69.20;;;;;;5090686;28;20043;-78
2023/10/04 09:05:34;;;;;;;5.25;1.60;;;17.60;69.70;;;;;;5061031;28;20043;-77
2023/10/04 09:08:04;;;;;;;4.57;1.52;;;17.60;68.90;;;;;;5074794;28;20040;-79
2023/10/04 09:10:32;;;;;;;2.42;1.70;;;17.60;68.90;;;;;;5089186;28;21047;-77
2023/10/04 09:12:58;;;;;;;4.60;1.60;;;17.60;68.80;;;;;;5082932;28;20176;-76
2023/10/04 09:15:24;;;;;;;3.78;2.03;;;17.60;69.00;;;;;;5087425;28;20539;-76
2023/10/04 09:17:57;;;;;;;4.50;1.65;;;17.60;68.70;;;;;;5078631;28;20046;-76
2023/10/04 09:20:30;;;;;;;3.28;1.48;;;17.80;68.90;;;;;;5086429;28;20052;-76
2023/10/04 09:22:56;;;;;;;4.63;1.77;;;17.90;68.40;;;;;;5070393;28;20204;-77
2023/10/04 09:25:22;;;;;;;4.65;1.40;;;18.00;68.00;;;;;;5076259;28;20044;-77
2023/10/04 09:27:57;;;;;;;3.42;1.40;;;18.10;67.70;;;;;;5086991;28;20067;-76
2023/10/04 09:30:26;;;;;;;3.63;1.50;;;18.30;67.50;;;;;;5096869;27;20508;-76
2023/10/04 09:32:52;;;;;;;2.78;1.58;;;18.30;67.00;;;;;;5085780;28;20082;-77
2023/10/04 09:35:20;;;;;;;2.58;1.42;;;18.50;67.20;;;;;;5088117;28;20087;-78
2023/10/04 09:37:48;;;;;;;2.67;1.27;;;18.50;67.40;;;;;;5087944;28;20047;-77
2023/10/04 09:40:15;;;;;;;3.95;1.88;;;18.70;68.40;;;;;;5082751;28;20051;-79
2023/10/04 09:42:49;;;;;;;1.88;1.33;;;18.70;67.60;;;;;;5086977;28;20051;-79
2023/10/04 09:45:15;;;;;;;2.10;1.00;;;18.90;67.60;;;;;;5087462;28;20031;-78
2023/10/04 09:47:42;;;;;;;2.03;1.52;;;18.90;67.60;;;;;;5089292;28;20044;-77
2023/10/04 09:50:12;;;;;;;3.10;1.45;;;19.00;67.80;;;;;;5092054;28;20044;-77
2023/10/04 09:52:38;;;;;;;2.10;1.60;;;19.10;67.90;;;;;;5080952;28;21439;-77
2023/10/04 09:55:05;;;;;;;3.50;1.40;;;19.10;68.00;;;;;;5095446;28;20048;-78
2023/10/04 09:57:32;;;;;;;2.72;1.38;;;19.20;68.10;;;;;;5090450;28;20066;-79
2023/10/04 09:59:58;;;;;;;2.13;1.25;;;19.30;68.20;;;;;;5060634;28;20044;-79
2023/10/04 10:02:23;;;;;;;2.03;1.30;;;19.30;68.00;;;;;;5096510;28;20040;-78
2023/10/04 10:04:49;;;;;;;1.10;1.00;;;19.40;68.30;;;;;;5078042;28;20366;-79
2023/10/04 10:07:21;;;;;;;3.13;1.13;;;19.40;68.20;;;;;;5057862;28;20095;-80
2023/10/04 10:10:16;;;;;;;2.97;1.50;;;19.50;68.60;;;;;;5084757;28;20092;-78
2023/10/04 10:12:44;;;;;;;3.92;1.42;;;19.50;69.60;;;;;;5080037;28;20138;-79
2023/10/04 10:15:13;;;;;;;2.97;1.08;;;19.50;68.20;;;;;;5061943;28;20048;-77
2023/10/04 10:17:38;;;;;;;4.47;1.33;;;19.50;67.10;;;;;;5085914;28;20040;-79
2023/10/04 10:20:09;;;;;;;3.47;1.20;;;19.50;66.70;;;;;;5079142;28;20065;-79
2023/10/04 10:22:51;;;;;;;2.78;1.23;;;19.50;66.90;;;;;;5108784;27;20576;-79
2023/10/04 10:25:17;;;;;;;3.28;1.20;;;19.50;66.30;;;;;;5060305;28;20044;-77
2023/10/04 10:27:43;;;;;;;3.20;1.52;;;19.40;65.40;;;;;;5076979;28;20502;-79
2023/10/04 10:30:11;;;;;;;4.78;1.38;;;19.40;65.30;;;;;;5084578;28;20044;-81
2023/10/04 10:32:48;;;;;;;2.80;1.58;;;19.30;65.90;;;;;;5072163;28;20074;-78
2023/10/04 10:35:13;;;;;;;5.25;1.80;;;19.40;64.90;;;;;;5077937;28;20036;-79
2023/10/04 10:37:39;;;;;;;2.58;1.13;;;19.50;64.10;;;;;;5080684;28;20131;-79
2023/10/04 10:40:08;;;;;;;2.30;1.02;;;19.50;64.80;;;;;;5079986;28;20036;-80
2023/10/04 10:43:06;;;;;;;2.97;1.10;;;19.50;64.40;;;;;;5072763;28;20047;-78
2023/10/04 10:45:31;;;;;;;1.67;0.98;;;19.50;65.20;;;;;;5081783;28;20122;-78
2023/10/04 10:47:58;;;;;;;2.75;1.50;;;19.50;64.80;;;;;;5074282;28;20474;-78
2023/10/04 10:50:33;;;;;;;1.95;1.20;;;19.50;64.70;;;;;;5069326;28;20043;-78
2023/10/04 10:53:06;;;;;;;3.40;1.40;;;19.50;64.60;;;;;;5077369;28;20040;-78
2023/10/04 10:55:35;;;;;;;2.03;1.00;;;19.60;65.70;;;;;;5079818;28;20048;-78
2023/10/04 10:58:00;;;;;;;1.50;1.17;;;19.70;65.20;;;;;;5058695;28;20067;-78
2023/10/04 11:00:31;;;;;;;2.15;0.80;;;19.80;65.50;;;;;;5077824;28;20517;-77
2023/10/04 11:02:57;;;;;;;1.15;0.93;;;19.80;65.50;;;;;;5081676;28;20043;-81
2023/10/04 11:05:25;;;;;;;2.30;1.00;;;19.90;64.60;;;;;;5078697;28;20060;-80
2023/10/04 11:07:52;;;;;;;1.45;0.80;;;20.00;64.70;;;;;;5084351;28;20131;-79
2023/10/04 11:10:20;;;;;;;2.10;1.10;;;20.00;65.00;;;;;;5078576;28;20051;-79
2023/10/04 11:12:46;;;;;;;1.02;0.90;;;20.00;65.10;;;;;;5073707;28;20052;-80
2023/10/04 11:15:12;;;;;;;1.23;0.80;;;20.10;65.20;;;;;;5083056;28;20048;-80
2023/10/04 11:17:39;;;;;;;1.75;1.00;;;20.10;65.30;;;;;;5068920;28;20056;-80
2023/10/04 11:20:09;;;;;;;1.10;1.00;;;20.10;65.50;;;;;;5068239;28;20032;-80
2023/10/04 11:22:36;;;;;;;1.95;1.00;;;20.10;65.40;;;;;;5080839;28;20056;-80
2023/10/04 11:25:02;;;;;;;1.75;0.98;;;20.20;65.40;;;;;;5068901;28;20097;-79
2023/10/04 11:27:28;;;;;;;1.15;0.90;;;20.30;65.50;;;;;;5062520;28;20036;-86
2023/10/04 11:29:53;;;;;;;1.95;0.95;;;20.20;65.50;;;;;;4698554;28;10000137;-89
2023/10/04 11:32:19;;;;;;;1.90;1.00;;;20.30;65.60;;;;;;5078448;28;20044;-80
2023/10/04 11:34:45;;;;;;;2.67;1.17;;;20.30;65.70;;;;;;5064429;28;20421;-87
2023/10/04 11:37:13;;;;;;;1.70;1.17;;;20.30;65.80;;;;;;5071126;28;20051;-87
2023/10/04 11:39:39;;;;;;;0.73;0.68;;;20.30;65.80;;;;;;5067301;28;20063;-86
2023/10/04 11:42:14;;;;;;;2.55;0.85;;;20.30;65.90;;;;;;5073484;28;20089;-87
2023/10/04 11:44:41;;;;;;;2.22;0.80;;;20.30;66.00;;;;;;5080508;28;20495;-84
2023/10/04 11:47:08;;;;;;;1.17;0.82;;;20.30;66.00;;;;;;5076156;28;20465;-88
2023/10/04 11:49:34;;;;;;;2.50;1.60;;;20.40;66.10;;;;;;5081616;28;20036;-88
2023/10/04 11:52:07;;;;;;;1.30;0.73;;;20.40;66.00;;;;;;5080789;28;20089;-87
2023/10/04 11:54:53;;;;;;;1.35;0.70;;;20.40;66.00;;;;;;5079023;28;20044;-88
2023/10/04 11:57:26;;;;;;;1.20;1.10;;;20.40;66.10;;;;;;5075482;28;20052;-81
2023/10/04 11:59:52;;;;;;;6.72;1.08;;;20.40;66.10;;;;;;5083978;28;20040;-81
2023/10/04 12:02:17;;;;;;;1.25;0.82;;;20.40;66.10;;;;;;5078829;28;20146;-82
2023/10/04 12:04:45;;;;;;;1.38;1.00;;;20.40;66.10;;;;;;5087169;28;20575;-81
2023/10/04 12:07:11;;;;;;;1.38;1.10;;;20.50;66.20;;;;;;5074220;28;20032;-81
2023/10/04 12:09:37;;;;;;;1.20;0.90;;;20.50;66.20;;;;;;5082007;28;20032;-80
2023/10/04 12:12:04;;;;;;;2.38;1.27;;;20.50;66.20;;;;;;5069240;28;20579;-79
2023/10/04 12:14:31;;;;;;;2.15;0.63;;;20.50;65.90;;;;;;5081255;28;20449;-78
2023/10/04 12:17:05;;;;;;;1.75;1.42;;;20.50;66.30;;;;;;5083298;28;20039;-79
2023/10/04 12:19:31;;;;;;;1.83;1.10;;;20.60;67.00;;;;;;5086301;28;20034;-79
2023/10/04 12:21:59;;;;;;;1.05;0.80;;;20.60;66.90;;;;;;5080829;28;20048;-79
2023/10/04 12:24:26;;;;;;;0.80;0.80;;;20.50;67.30;;;;;;5073061;28;20535;-78
2023/10/04 12:26:55;;;;;;;1.15;0.75;;;20.60;67.30;;;;;;5076980;28;20725;-79
2023/10/04 12:29:21;;;;;;;1.05;0.95;;;20.60;67.20;;;;;;5079350;28;20532;-78
2023/10/04 12:31:47;;;;;;;1.02;0.90;;;20.60;67.30;;;;;;5080314;28;20057;-78
2023/10/04 12:34:13;;;;;;;4.53;0.85;;;20.60;67.40;;;;;;5063649;28;20051;-78
2023/10/04 12:36:39;;;;;;;0.77;0.65;;;20.60;67.20;;;;;;5073661;28;20051;-77
2023/10/04 12:39:06;;;;;;;0.85;0.80;;;20.70;67.60;;;;;;5085290;28;20047;-78
2023/10/04 12:41:32;;;;;;;2.88;0.75;;;20.70;67.40;;;;;;5074677;28;20131;-79
2023/10/04 12:43:58;;;;;;;1.27;0.80;;;20.70;67.30;;;;;;5077963;28;20048;-79
2023/10/04 12:46:23;;;;;;;1.92;0.55;;;20.70;67.50;;;;;;5078781;28;20044;-79
2023/10/04 12:48:50;;;;;;;0.80;0.60;;;20.70;67.30;;;;;;5079418;28;20071;-79
2023/10/04 12:51:15;;;;;;;1.02;0.60;;;20.80;67.20;;;;;;5077503;28;20482;-79